createdAt,value
2017-06-28T00:00:14.616Z,0
2017-06-28T00:01:24.890Z,0
2017-06-28T00:02:35.174Z,0
2017-06-28T00:03:45.473Z,0
2017-06-28T00:04:55.762Z,0
2017-06-28T00:06:06.047Z,0
2017-06-28T00:07:16.019Z,0
2017-06-28T00:08:26.292Z,0
2017-06-28T00:09:36.272Z,0
2017-06-28T00:10:46.549Z,0
2017-06-28T00:11:56.531Z,0
2017-06-28T00:13:06.823Z,0
2017-06-28T00:14:16.491Z,0
2017-06-28T00:15:26.467Z,0
2017-06-28T00:16:36.141Z,0
2017-06-28T00:17:46.432Z,0
2017-06-28T00:18:56.785Z,0
2017-06-28T00:20:07.063Z,0
2017-06-28T00:21:17.348Z,0
2017-06-28T00:22:27.640Z,0
2017-06-28T00:23:37.920Z,0
2017-06-28T00:24:48.187Z,0
2017-06-28T00:25:58.486Z,0
2017-06-28T00:27:08.769Z,0
2017-06-28T00:28:18.746Z,0
2017-06-28T00:29:29.027Z,0
2017-06-28T00:30:39.308Z,0
2017-06-28T00:31:49.582Z,0
2017-06-28T00:32:59.861Z,0
2017-06-28T00:34:09.844Z,0
2017-06-28T00:35:20.127Z,0
2017-06-28T00:36:30.419Z,0
2017-06-28T00:37:40.703Z,0
2017-06-28T00:38:51.003Z,0
2017-06-28T00:40:01.291Z,0
2017-06-28T00:41:11.573Z,0
2017-06-28T00:42:21.922Z,0
2017-06-28T00:43:32.203Z,0
2017-06-28T00:44:41.881Z,0
2017-06-28T00:45:51.235Z,0
2017-06-28T00:47:00.905Z,0
2017-06-28T00:48:10.619Z,0
2017-06-28T00:49:20.588Z,0
2017-06-28T00:50:30.870Z,0
2017-06-28T00:51:41.155Z,0
2017-06-28T00:52:51.123Z,0
2017-06-28T00:54:01.189Z,0
2017-06-28T00:55:10.850Z,0
2017-06-28T00:56:20.514Z,0
2017-06-28T00:57:30.800Z,0
2017-06-28T00:58:41.077Z,0
2017-06-28T00:59:51.477Z,0
2017-06-28T01:01:01.757Z,0
2017-06-28T01:02:12.052Z,0
2017-06-28T01:03:21.720Z,0
2017-06-28T01:04:32.017Z,0
2017-06-28T01:05:42.359Z,0
2017-06-28T01:06:52.638Z,0
2017-06-28T01:08:02.620Z,0
2017-06-28T01:09:12.579Z,0
2017-06-28T01:10:22.561Z,0
2017-06-28T01:11:32.881Z,0
2017-06-28T01:12:43.175Z,0
2017-06-28T01:13:53.458Z,0
2017-06-28T01:15:03.129Z,0
2017-06-28T01:16:13.113Z,0
2017-06-28T01:17:23.095Z,0
2017-06-28T01:18:33.387Z,0
2017-06-28T01:19:43.358Z,0
2017-06-28T01:20:53.639Z,0
2017-06-28T01:22:03.306Z,0
2017-06-28T01:23:13.584Z,0
2017-06-28T01:24:23.871Z,0
2017-06-28T01:25:34.160Z,0
2017-06-28T01:26:44.143Z,0
2017-06-28T01:27:54.425Z,0
2017-06-28T01:29:04.713Z,0
2017-06-28T01:30:15.010Z,0
2017-06-28T01:31:24.997Z,0
2017-06-28T01:32:35.290Z,0
2017-06-28T01:33:45.264Z,0
2017-06-28T01:34:55.224Z,0
2017-06-28T01:36:05.505Z,0
2017-06-28T01:37:15.797Z,0
2017-06-28T01:38:26.079Z,0
2017-06-28T01:39:36.353Z,0
2017-06-28T01:40:46.679Z,0
2017-06-28T01:41:56.988Z,0
2017-06-28T01:43:06.954Z,0
2017-06-28T01:44:17.241Z,0
2017-06-28T01:45:27.506Z,0
2017-06-28T01:46:37.504Z,0
2017-06-28T01:47:47.470Z,0
2017-06-28T01:48:57.384Z,0
2017-06-28T01:50:07.675Z,0
2017-06-28T01:51:17.962Z,0
2017-06-28T01:52:28.307Z,0
2017-06-28T01:53:38.596Z,0
2017-06-28T01:54:48.877Z,0
2017-06-28T01:55:59.158Z,0
2017-06-28T01:57:09.454Z,0
2017-06-28T01:58:19.781Z,0
2017-06-28T01:59:30.060Z,0
2017-06-28T02:00:40.345Z,0
2017-06-28T02:01:50.006Z,0
2017-06-28T02:03:00.295Z,0
2017-06-28T02:04:10.622Z,0
2017-06-28T02:05:20.906Z,0
2017-06-28T02:06:30.889Z,0
2017-06-28T02:07:41.179Z,0
2017-06-28T02:08:51.457Z,0
2017-06-28T02:10:01.760Z,0
2017-06-28T02:11:12.042Z,0
2017-06-28T02:12:22.337Z,0
2017-06-28T02:13:32.304Z,0
2017-06-28T02:14:42.600Z,0
2017-06-28T02:15:52.583Z,4
2017-06-28T02:17:02.864Z,4
2017-06-28T02:18:13.381Z,4
2017-06-28T02:19:23.679Z,4
2017-06-28T02:20:33.963Z,0
2017-06-28T02:21:44.252Z,4
2017-06-28T02:22:54.251Z,4
2017-06-28T02:24:04.594Z,4
2017-06-28T02:25:14.630Z,4
2017-06-28T02:26:24.668Z,4
2017-06-28T02:27:34.700Z,8
2017-06-28T02:28:44.959Z,8
2017-06-28T02:29:54.984Z,8
2017-06-28T02:31:05.013Z,8
2017-06-28T02:32:15.358Z,12
2017-06-28T02:33:25.386Z,16
2017-06-28T02:34:35.739Z,16
2017-06-28T02:35:46.102Z,20
2017-06-28T02:36:56.131Z,24
2017-06-28T02:38:06.136Z,28
2017-06-28T02:39:16.467Z,32
2017-06-28T02:40:26.487Z,40
2017-06-28T02:41:36.838Z,44
2017-06-28T02:42:47.201Z,52
2017-06-28T02:43:57.540Z,56
2017-06-28T02:45:07.313Z,64
2017-06-28T02:46:17.647Z,76
2017-06-28T02:47:28.029Z,84
2017-06-28T02:48:38.376Z,96
2017-06-28T02:49:48.407Z,108
2017-06-28T02:50:58.520Z,116
2017-06-28T02:52:08.863Z,128
2017-06-28T02:53:19.216Z,144
2017-06-28T02:54:29.557Z,156
2017-06-28T02:55:39.608Z,172
2017-06-28T02:56:50.000Z,188
2017-06-28T02:58:00.326Z,200
2017-06-28T02:59:10.340Z,220
2017-06-28T03:00:20.387Z,236
2017-06-28T03:01:30.735Z,260
2017-06-28T03:33:42.097Z,1088
2017-06-28T03:34:52.114Z,1124
2017-06-28T03:36:02.454Z,1156
2017-06-28T03:37:12.476Z,1192
2017-06-28T03:38:22.505Z,1236
2017-06-28T03:39:32.885Z,1280
2017-06-28T03:40:43.228Z,1332
2017-06-28T03:41:53.262Z,1380
2017-06-28T03:43:03.308Z,1432
2017-06-28T03:44:13.671Z,1492
2017-06-28T03:45:23.693Z,1544
2017-06-28T03:46:33.721Z,1596
2017-06-28T03:47:44.063Z,1644
2017-06-28T03:48:54.405Z,1680
2017-06-28T03:50:04.441Z,1720
2017-06-28T03:51:14.519Z,1764
2017-06-28T03:52:24.877Z,1916
2017-06-28T03:53:35.226Z,2068
2017-06-28T03:54:45.574Z,2080
2017-06-28T03:55:55.610Z,1944
2017-06-28T03:57:05.699Z,1992
2017-06-28T03:58:15.733Z,2036
2017-06-28T03:59:25.128Z,2072
2017-06-28T04:00:35.518Z,2104
2017-06-28T04:01:45.879Z,2172
2017-06-28T04:02:55.959Z,2268
2017-06-28T04:04:05.683Z,2332
2017-06-28T04:05:15.717Z,2432
2017-06-28T04:06:25.747Z,2496
2017-06-28T04:07:35.783Z,2548
2017-06-28T04:08:46.178Z,2608
2017-06-28T04:09:56.235Z,2664
2017-06-28T04:11:06.574Z,2724
2017-06-28T04:12:16.606Z,2788
2017-06-28T04:13:26.955Z,2848
2017-06-28T04:14:37.366Z,2908
2017-06-28T04:15:47.719Z,2964
2017-06-28T04:16:58.060Z,3024
2017-06-28T04:18:08.409Z,3088
2017-06-28T04:19:18.504Z,3156
2017-06-28T04:20:28.884Z,4228
2017-06-28T04:21:38.955Z,10216
2017-06-28T04:22:49.294Z,14080
2017-06-28T04:23:59.623Z,14272
2017-06-28T04:25:09.331Z,14592
2017-06-28T04:26:19.357Z,14752
2017-06-28T04:27:29.395Z,14688
2017-06-28T04:28:39.750Z,14752
2017-06-28T04:29:49.805Z,14496
2017-06-28T04:30:59.824Z,14752
2017-06-28T04:32:10.231Z,14496
2017-06-28T04:33:20.562Z,14912
2017-06-28T04:34:30.908Z,14784
2017-06-28T04:35:40.939Z,14880
2017-06-28T04:36:50.974Z,15232
2017-06-28T04:38:01.327Z,15264
2017-06-28T04:39:11.358Z,15008
2017-06-28T04:40:21.397Z,15296
2017-06-28T04:41:31.440Z,15296
2017-06-28T04:42:41.484Z,15424
2017-06-28T04:43:51.901Z,15360
2017-06-28T04:45:01.928Z,15264
2017-06-28T04:46:12.296Z,15040
2017-06-28T04:47:22.651Z,15104
2017-06-28T04:48:33.001Z,14304
2017-06-28T04:49:43.034Z,13016
2017-06-28T04:50:53.064Z,14752
2017-06-28T04:52:02.800Z,14144
2017-06-28T04:53:12.842Z,14208
2017-06-28T04:54:22.874Z,14368
2017-06-28T04:55:33.275Z,14848
2017-06-28T04:56:43.624Z,14208
2017-06-28T04:57:53.666Z,13004
2017-06-28T04:59:04.008Z,13032
2017-06-28T05:00:14.349Z,12896
2017-06-28T05:01:24.763Z,12404
2017-06-28T05:02:35.132Z,12484
2017-06-28T05:03:45.496Z,12188
2017-06-28T05:04:55.842Z,12508
2017-06-28T05:06:06.193Z,12920
2017-06-28T05:07:16.607Z,13324
2017-06-28T05:08:26.970Z,13648
2017-06-28T05:09:37.020Z,13916
2017-06-28T05:10:47.369Z,13924
2017-06-28T05:11:57.704Z,14224
2017-06-28T05:13:07.472Z,14444
2017-06-28T05:14:17.832Z,14560
2017-06-28T05:15:27.857Z,14784
2017-06-28T05:16:38.202Z,15008
2017-06-28T05:17:48.558Z,15008
2017-06-28T05:18:58.908Z,14720
2017-06-28T05:20:09.293Z,14688
2017-06-28T05:21:19.330Z,13116
2017-06-28T05:22:29.368Z,8780
2017-06-28T05:23:39.733Z,8752
2017-06-28T05:24:50.093Z,11596
2017-06-28T05:26:00.427Z,7708
2017-06-28T05:27:10.786Z,7040
2017-06-28T05:28:21.151Z,10068
2017-06-28T05:29:31.503Z,10948
2017-06-28T05:30:41.536Z,14912
2017-06-28T05:31:51.883Z,14944
2017-06-28T05:33:02.265Z,14848
2017-06-28T05:34:12.287Z,14216
2017-06-28T05:35:22.330Z,14092
2017-06-28T05:36:32.740Z,13724
2017-06-28T05:37:42.802Z,13720
2017-06-28T05:38:52.832Z,13840
2017-06-28T05:40:02.870Z,13848
2017-06-28T05:41:13.217Z,14568
2017-06-28T05:42:23.656Z,14612
2017-06-28T05:43:33.684Z,14304
2017-06-28T05:44:43.731Z,14628
2017-06-28T05:45:53.769Z,14544
2017-06-28T05:47:04.129Z,14428
2017-06-28T05:48:14.178Z,14580
2017-06-28T05:49:24.532Z,14576
2017-06-28T05:50:34.272Z,14524
2017-06-28T05:51:44.627Z,14436
2017-06-28T05:52:54.981Z,14288
2017-06-28T05:54:05.394Z,14172
2017-06-28T05:55:15.742Z,14140
2017-06-28T05:56:26.108Z,14208
2017-06-28T05:57:36.455Z,14260
2017-06-28T05:58:46.805Z,14208
2017-06-28T05:59:56.844Z,14128
2017-06-28T06:01:06.898Z,13944
2017-06-28T06:02:17.247Z,13848
2017-06-28T06:03:27.600Z,13788
2017-06-28T06:04:37.671Z,13624
2017-06-28T06:05:48.070Z,13632
2017-06-28T06:06:58.465Z,13684
2017-06-28T06:08:08.821Z,13648
2017-06-28T06:09:19.186Z,13612
2017-06-28T06:10:29.214Z,13552
2017-06-28T06:11:39.305Z,13480
2017-06-28T06:12:49.652Z,13260
2017-06-28T06:14:00.008Z,13172
2017-06-28T06:15:10.050Z,13060
2017-06-28T06:16:20.091Z,12904
2017-06-28T06:17:30.504Z,12824
2017-06-28T06:18:40.865Z,12640
2017-06-28T06:19:51.212Z,12484
2017-06-28T06:21:01.556Z,12360
2017-06-28T06:22:11.921Z,12248
2017-06-28T06:23:22.323Z,12088
2017-06-28T06:24:32.688Z,12072
2017-06-28T06:25:43.066Z,12072
2017-06-28T06:26:52.787Z,11048
2017-06-28T06:28:02.825Z,11456
2017-06-28T06:29:13.195Z,11232
2017-06-28T06:30:23.219Z,11376
2017-06-28T06:31:33.258Z,11256
2017-06-28T06:32:43.300Z,11228
2017-06-28T06:33:53.649Z,11276
2017-06-28T06:35:04.003Z,11172
2017-06-28T06:36:14.343Z,11092
2017-06-28T06:37:24.708Z,11012
2017-06-28T06:38:35.081Z,10944
2017-06-28T06:39:45.432Z,10852
2017-06-28T06:40:55.810Z,10788
2017-06-28T06:42:06.189Z,10704
2017-06-28T06:43:16.546Z,10628
2017-06-28T06:44:26.899Z,10532
2017-06-28T06:45:37.281Z,10496
2017-06-28T06:46:47.677Z,10404
2017-06-28T06:47:57.413Z,10360
2017-06-28T06:49:07.467Z,10196
2017-06-28T06:50:17.865Z,10108
2017-06-28T06:51:28.216Z,10000
2017-06-28T06:52:38.585Z,9920
2017-06-28T06:53:48.632Z,9872
2017-06-28T06:54:58.368Z,9804
2017-06-28T06:56:08.415Z,9712
2017-06-28T06:57:18.455Z,9332
2017-06-28T06:58:28.862Z,9624
2017-06-28T06:59:39.225Z,9540
2017-06-28T07:00:49.261Z,9220
2017-06-28T07:01:59.314Z,7780
2017-06-28T07:03:09.686Z,9744
2017-06-28T07:04:20.105Z,7768
2017-06-28T07:05:30.149Z,7748
2017-06-28T07:06:40.506Z,6460
2017-06-28T07:07:50.850Z,7224
2017-06-28T07:09:00.887Z,9884
2017-06-28T07:10:11.302Z,9396
2017-06-28T07:11:21.349Z,8672
2017-06-28T07:12:31.735Z,6820
2017-06-28T07:13:41.784Z,7348
2017-06-28T07:14:52.139Z,8520
2017-06-28T07:16:02.544Z,6792
2017-06-28T07:17:12.894Z,7708
2017-06-28T07:18:23.250Z,8440
2017-06-28T07:19:33.292Z,8244
2017-06-28T07:20:43.644Z,8176
2017-06-28T07:21:53.433Z,8144
2017-06-28T07:23:03.798Z,8256
2017-06-28T07:24:14.144Z,8432
2017-06-28T07:25:24.520Z,8384
2017-06-28T07:26:34.555Z,8524
2017-06-28T07:27:44.967Z,8856
2017-06-28T07:28:55.316Z,7796
2017-06-28T07:30:05.679Z,8740
2017-06-28T07:31:16.068Z,7976
2017-06-28T07:32:26.447Z,7444
2017-06-28T07:33:36.810Z,7456
2017-06-28T07:34:47.224Z,7320
2017-06-28T07:35:57.267Z,7224
2017-06-28T07:37:07.631Z,7220
2017-06-28T07:38:17.767Z,7156
2017-06-28T07:39:27.863Z,7376
2017-06-28T07:40:38.225Z,7208
2017-06-28T07:41:48.275Z,7128
2017-06-28T07:42:58.318Z,6968
2017-06-28T07:44:08.678Z,6812
2017-06-28T07:45:19.088Z,6672
2017-06-28T07:46:29.128Z,6664
2017-06-28T07:47:39.175Z,6600
2017-06-28T07:48:49.546Z,6464
2017-06-28T07:49:59.307Z,6452
2017-06-28T07:51:09.339Z,6512
2017-06-28T07:52:19.404Z,6540
2017-06-28T07:53:29.795Z,6468
2017-06-28T07:54:39.867Z,6328
2017-06-28T07:55:50.225Z,6284
2017-06-28T07:57:00.578Z,6392
2017-06-28T07:58:10.620Z,6336
2017-06-28T07:59:20.695Z,6552
2017-06-28T08:00:31.063Z,6860
2017-06-28T08:01:41.107Z,7320
2017-06-28T08:02:51.507Z,9152
2017-06-28T08:04:01.859Z,8668
2017-06-28T08:05:12.238Z,8712
2017-06-28T08:06:22.606Z,7420
2017-06-28T08:07:32.982Z,7260
2017-06-28T08:08:43.398Z,7148
2017-06-28T08:09:53.434Z,7008
2017-06-28T08:11:03.788Z,6828
2017-06-28T08:12:14.151Z,6836
2017-06-28T08:13:24.511Z,6680
2017-06-28T08:14:34.927Z,6732
2017-06-28T08:15:45.297Z,6756
2017-06-28T08:16:55.650Z,6780
2017-06-28T08:18:05.990Z,6620
2017-06-28T08:19:16.338Z,6536
2017-06-28T08:20:26.738Z,6564
2017-06-28T08:21:37.085Z,6700
2017-06-28T08:22:47.440Z,6876
2017-06-28T08:23:57.805Z,7080
2017-06-28T08:25:08.162Z,7324
2017-06-28T08:26:18.554Z,7448
2017-06-28T08:27:28.283Z,7484
2017-06-28T08:28:38.316Z,7600
2017-06-28T08:29:48.668Z,7812
2017-06-28T08:30:59.013Z,7960
2017-06-28T08:32:09.414Z,8044
2017-06-28T08:33:19.772Z,8064
2017-06-28T08:34:30.130Z,7860
2017-06-28T08:35:40.536Z,7696
2017-06-28T08:36:50.907Z,7584
2017-06-28T08:38:00.958Z,7628
2017-06-28T08:39:11.322Z,7576
2017-06-28T08:40:21.354Z,7500
2017-06-28T08:41:31.710Z,7472
2017-06-28T08:42:41.761Z,7544
2017-06-28T08:43:52.125Z,8064
2017-06-28T08:45:02.154Z,10648
2017-06-28T08:46:12.565Z,10932
2017-06-28T08:47:22.935Z,9792
2017-06-28T08:48:33.284Z,11120
2017-06-28T08:49:43.017Z,11404
2017-06-28T08:50:53.365Z,11380
2017-06-28T08:52:04.217Z,11488
2017-06-28T08:53:15.317Z,11368
2017-06-28T08:54:25.707Z,11200
2017-06-28T08:55:35.783Z,10736
2017-06-28T08:56:46.156Z,11284
2017-06-28T08:57:56.841Z,11372
2017-06-28T08:59:06.898Z,11000
2017-06-28T09:00:17.255Z,9980
2017-06-28T09:01:27.616Z,11160
2017-06-28T09:02:38.052Z,8620
2017-06-28T09:03:48.451Z,8340
2017-06-28T09:04:58.188Z,8348
2017-06-28T09:06:08.560Z,9276
2017-06-28T09:07:18.914Z,8728
2017-06-28T09:08:29.329Z,9772
2017-06-28T09:09:39.884Z,10672
2017-06-28T09:10:49.918Z,10544
2017-06-28T09:11:59.962Z,9692
2017-06-28T09:13:10.022Z,10416
2017-06-28T09:14:20.385Z,9700
2017-06-28T09:15:30.738Z,9988
2017-06-28T09:16:40.774Z,8848
2017-06-28T09:17:51.128Z,9116
2017-06-28T09:19:01.490Z,6948
2017-06-28T09:20:11.558Z,8120
2017-06-28T09:21:21.606Z,8664
2017-06-28T09:22:31.966Z,8760
2017-06-28T09:23:42.350Z,8556
2017-06-28T09:24:52.698Z,7872
2017-06-28T09:26:02.735Z,7768
2017-06-28T09:27:12.453Z,7500
2017-06-28T09:28:22.493Z,7376
2017-06-28T09:29:32.848Z,7392
2017-06-28T09:30:43.213Z,7216
2017-06-28T09:31:53.562Z,7108
2017-06-28T09:33:03.655Z,7040
2017-06-28T09:34:14.014Z,7044
2017-06-28T09:35:24.359Z,7068
2017-06-28T09:36:34.718Z,7128
2017-06-28T09:37:45.091Z,7316
2017-06-28T09:38:55.477Z,6464
2017-06-28T09:40:05.846Z,7048
2017-06-28T09:41:16.206Z,7188
2017-06-28T09:42:26.259Z,7024
2017-06-28T09:43:36.651Z,7212
2017-06-28T09:44:47.041Z,7308
2017-06-28T09:45:57.398Z,7432
2017-06-28T09:47:07.432Z,7484
2017-06-28T09:48:17.805Z,7476
2017-06-28T09:49:28.225Z,7504
2017-06-28T09:50:38.269Z,7364
2017-06-28T09:51:48.326Z,7264
2017-06-28T09:52:58.683Z,7268
2017-06-28T09:54:09.047Z,7244
2017-06-28T09:55:19.168Z,6892
2017-06-28T09:56:28.891Z,6488
2017-06-28T09:57:39.242Z,5544
2017-06-28T09:58:49.282Z,7064
2017-06-28T09:59:59.331Z,7380
2017-06-28T10:01:09.119Z,7564
2017-06-28T10:02:19.471Z,7600
2017-06-28T10:03:29.821Z,7252
2017-06-28T10:04:40.183Z,7504
2017-06-28T10:05:50.534Z,7700
2017-06-28T10:07:00.896Z,7528
2017-06-28T10:08:10.951Z,6904
2017-06-28T10:09:21.309Z,7372
2017-06-28T10:10:31.363Z,7008
2017-06-28T10:11:41.415Z,7228
2017-06-28T10:12:51.866Z,7896
2017-06-28T10:14:02.235Z,8140
2017-06-28T10:15:12.613Z,8464
2017-06-28T10:16:22.957Z,8296
2017-06-28T10:17:33.317Z,8204
2017-06-28T10:18:43.733Z,8084
2017-06-28T10:19:54.118Z,7136
2017-06-28T10:21:04.492Z,6240
2017-06-28T10:22:14.537Z,6196
2017-06-28T10:23:24.901Z,6344
2017-06-28T10:24:35.334Z,6864
2017-06-28T10:25:45.702Z,6688
2017-06-28T10:26:56.068Z,7864
2017-06-28T10:28:06.595Z,9368
2017-06-28T10:29:16.961Z,8400
2017-06-28T10:30:27.075Z,8992
2017-06-28T10:31:37.456Z,9352
2017-06-28T10:32:47.497Z,9616
2017-06-28T10:33:57.549Z,9636
2017-06-28T10:35:07.913Z,9480
2017-06-28T10:36:18.319Z,9896
2017-06-28T10:37:28.701Z,9772
2017-06-28T10:38:38.751Z,9508
2017-06-28T10:39:49.116Z,7504
2017-06-28T10:40:59.147Z,7404
2017-06-28T10:42:09.271Z,7744
2017-06-28T10:43:19.643Z,8700
2017-06-28T10:44:29.999Z,9720
2017-06-28T10:45:40.378Z,8908
2017-06-28T10:46:50.747Z,9196
2017-06-28T10:48:01.101Z,9236
2017-06-28T10:49:11.164Z,9416
2017-06-28T10:50:21.213Z,9624
2017-06-28T10:51:31.602Z,10052
2017-06-28T10:52:41.663Z,9920
2017-06-28T10:53:52.079Z,9904
2017-06-28T10:55:02.439Z,9696
2017-06-28T10:56:12.490Z,9344
2017-06-28T10:57:22.858Z,9668
2017-06-28T10:58:33.226Z,9808
2017-06-28T10:59:43.658Z,9404
2017-06-28T11:00:54.056Z,9756
2017-06-28T11:02:04.111Z,10012
2017-06-28T11:03:14.480Z,9552
2017-06-28T11:04:24.543Z,9960
2017-06-28T11:05:34.971Z,9580
2017-06-28T11:06:45.326Z,10772
2017-06-28T11:07:55.702Z,8248
2017-06-28T11:09:06.076Z,7044
2017-06-28T11:10:16.456Z,7776
2017-06-28T11:11:26.556Z,7204
2017-06-28T11:12:36.919Z,6816
2017-06-28T11:13:47.272Z,6372
2017-06-28T11:14:57.643Z,6912
2017-06-28T11:16:08.004Z,10656
2017-06-28T11:17:18.427Z,11040
2017-06-28T11:18:28.497Z,11096
2017-06-28T11:19:38.866Z,10580
2017-06-28T11:20:49.232Z,10812
2017-06-28T11:21:58.964Z,10016
2017-06-28T11:23:09.015Z,10028
2017-06-28T11:24:19.382Z,9684
2017-06-28T11:25:29.753Z,10416
2017-06-28T11:26:40.137Z,9828
2017-06-28T11:27:50.518Z,10728
2017-06-28T11:29:00.964Z,11032
2017-06-28T11:30:11.015Z,11428
2017-06-28T11:31:21.063Z,10828
2017-06-28T11:32:31.046Z,11168
2017-06-28T11:33:41.429Z,11496
2017-06-28T11:34:51.841Z,11284
2017-06-28T11:36:02.203Z,11624
2017-06-28T11:37:12.572Z,11656
2017-06-28T11:38:22.963Z,11312
2017-06-28T11:39:33.344Z,10684
2017-06-28T11:40:43.772Z,11264
2017-06-28T11:41:54.131Z,11692
2017-06-28T11:43:04.506Z,12216
2017-06-28T11:44:14.555Z,11932
2017-06-28T11:45:24.974Z,11236
2017-06-28T11:46:35.393Z,10740
2017-06-28T11:47:45.759Z,9932
2017-06-28T11:48:56.045Z,9956
2017-06-28T11:50:06.087Z,9584
2017-06-28T11:51:16.152Z,9448
2017-06-28T11:52:26.287Z,8540
2017-06-28T11:53:36.657Z,8624
2017-06-28T11:54:46.737Z,8848
2017-06-28T11:55:57.119Z,8928
2017-06-28T11:57:07.492Z,8584
2017-06-28T11:58:17.923Z,8640
2017-06-28T11:59:28.298Z,8712
2017-06-28T12:00:38.383Z,8476
2017-06-28T12:01:48.782Z,8564
2017-06-28T12:02:59.160Z,8820
2017-06-28T12:04:09.531Z,9296
2017-06-28T12:05:19.628Z,9560
2017-06-28T12:06:30.006Z,9648
2017-06-28T12:07:40.067Z,9820
2017-06-28T12:08:50.154Z,9936
2017-06-28T12:10:00.287Z,9912
2017-06-28T12:11:10.653Z,9932
2017-06-28T12:12:20.710Z,10492
2017-06-28T12:13:31.077Z,10684
2017-06-28T12:14:41.446Z,10816
2017-06-28T12:15:51.867Z,10608
2017-06-28T12:17:02.314Z,10712
2017-06-28T12:18:12.677Z,10848
2017-06-28T12:19:23.045Z,10812
2017-06-28T12:20:33.409Z,10960
2017-06-28T12:21:43.852Z,10876
2017-06-28T12:22:54.218Z,11048
2017-06-28T12:24:04.596Z,10852
2017-06-28T12:25:14.654Z,10216
2017-06-28T12:26:24.398Z,10072
2017-06-28T12:27:34.468Z,9708
2017-06-28T12:28:44.845Z,9768
2017-06-28T12:29:54.921Z,10048
2017-06-28T12:31:04.971Z,10380
2017-06-28T12:32:15.335Z,11264
2017-06-28T12:33:25.709Z,11540
2017-06-28T12:34:36.134Z,11412
2017-06-28T12:35:46.511Z,12748
2017-06-28T12:36:56.590Z,12488
2017-06-28T12:38:06.984Z,13804
2017-06-28T12:39:17.407Z,13272
2017-06-28T12:40:27.448Z,13160
2017-06-28T12:41:37.820Z,13012
2017-06-28T12:42:48.218Z,12700
2017-06-28T12:43:58.298Z,12644
2017-06-28T12:45:08.736Z,11840
2017-06-28T12:46:19.092Z,12052
2017-06-28T12:47:29.169Z,11640
2017-06-28T12:48:39.536Z,11136
2017-06-28T12:49:49.916Z,10296
2017-06-28T12:51:00.331Z,10096
2017-06-28T12:52:10.714Z,10128
2017-06-28T12:53:21.088Z,9908
2017-06-28T12:54:31.503Z,10076
2017-06-28T12:55:41.866Z,10812
2017-06-28T12:56:52.280Z,10752
2017-06-28T12:58:02.694Z,10032
2017-06-28T12:59:13.074Z,9944
2017-06-28T13:00:23.441Z,9880
2017-06-28T13:01:33.796Z,8344
2017-06-28T13:02:43.933Z,7908
2017-06-28T13:03:53.681Z,6932
2017-06-28T13:05:04.059Z,9964
2017-06-28T13:06:13.824Z,10360
2017-06-28T13:07:24.195Z,10640
2017-06-28T13:08:34.642Z,10836
2017-06-28T13:09:45.031Z,11072
2017-06-28T13:10:55.101Z,11116
2017-06-28T13:12:05.155Z,10896
2017-06-28T13:13:15.520Z,10672
2017-06-28T13:14:25.886Z,9600
2017-06-28T13:15:36.268Z,8608
2017-06-28T13:16:46.856Z,8732
2017-06-28T13:17:56.939Z,8604
2017-06-28T13:19:07.317Z,9152
2017-06-28T13:20:17.775Z,9552
2017-06-28T13:21:27.845Z,9856
2017-06-28T13:22:38.200Z,9640
2017-06-28T13:23:48.274Z,9488
2017-06-28T13:24:58.646Z,8888
2017-06-28T13:26:08.774Z,8888
2017-06-28T13:27:19.164Z,8920
2017-06-28T13:28:29.512Z,8572
2017-06-28T13:29:39.901Z,8604
2017-06-28T13:30:50.280Z,8388
2017-06-28T13:32:00.418Z,7976
2017-06-28T13:33:10.772Z,8052
2017-06-28T13:34:21.165Z,8040
2017-06-28T13:35:31.232Z,7996
2017-06-28T13:36:41.294Z,8028
2017-06-28T13:37:51.739Z,8052
2017-06-28T13:39:02.114Z,8192
2017-06-28T13:40:12.513Z,6996
2017-06-28T13:41:22.882Z,7240
2017-06-28T13:42:32.965Z,7552
2017-06-28T13:43:43.017Z,8016
2017-06-28T13:44:52.777Z,7412
2017-06-28T13:46:03.163Z,7132
2017-06-28T13:47:13.570Z,7152
2017-06-28T13:48:23.953Z,6804
2017-06-28T13:49:34.368Z,6444
2017-06-28T13:50:44.418Z,6612
2017-06-28T13:51:54.787Z,6640
2017-06-28T13:53:05.197Z,7156
2017-06-28T13:54:15.549Z,7776
2017-06-28T13:55:25.962Z,6412
2017-06-28T13:56:36.340Z,7200
2017-06-28T13:57:46.710Z,6896
2017-06-28T13:58:56.139Z,7104
2017-06-28T14:00:06.561Z,7156
2017-06-28T14:01:16.624Z,7636
2017-06-28T14:02:27.022Z,7816
2017-06-28T14:03:37.391Z,8504
2017-06-28T14:04:47.448Z,8428
2017-06-28T14:05:57.812Z,8500
2017-06-28T14:07:07.855Z,8516
2017-06-28T14:08:17.650Z,8600
2017-06-28T14:09:28.026Z,8540
2017-06-28T14:10:37.772Z,8352
2017-06-28T14:11:48.133Z,7192
2017-06-28T14:12:58.172Z,7544
2017-06-28T14:14:08.582Z,6204
2017-06-28T14:15:18.966Z,6188
2017-06-28T14:16:29.014Z,7008
2017-06-28T14:17:39.393Z,7480
2017-06-28T14:18:49.479Z,7208
2017-06-28T14:19:59.596Z,6996
2017-06-28T14:21:09.654Z,7344
2017-06-28T14:22:19.402Z,7548
2017-06-28T14:23:29.455Z,7516
2017-06-28T14:24:39.828Z,7408
2017-06-28T14:25:50.203Z,6612
2017-06-28T14:27:00.571Z,5028
2017-06-28T14:28:10.941Z,6212
2017-06-28T14:29:21.010Z,6392
2017-06-28T14:30:31.076Z,6072
2017-06-28T14:31:40.560Z,5992
2017-06-28T14:32:50.603Z,6228
2017-06-28T14:34:00.975Z,5824
2017-06-28T14:35:11.339Z,5704
2017-06-28T14:36:21.712Z,5904
2017-06-28T14:37:32.087Z,6052
2017-06-28T14:38:42.165Z,6100
2017-06-28T14:39:52.267Z,5976
2017-06-28T14:41:02.653Z,5696
2017-06-28T14:42:12.720Z,5504
2017-06-28T14:43:22.772Z,5556
2017-06-28T14:44:33.164Z,5668
2017-06-28T14:45:42.911Z,6120
2017-06-28T14:46:53.284Z,6512
2017-06-28T14:48:03.651Z,7044
2017-06-28T14:49:14.064Z,7268
2017-06-28T14:50:24.430Z,7576
2017-06-28T14:51:34.815Z,7664
2017-06-28T14:52:45.198Z,7760
2017-06-28T14:53:55.575Z,7592
2017-06-28T14:55:05.975Z,7620
2017-06-28T14:56:16.359Z,7412
2017-06-28T14:57:26.445Z,7436
2017-06-28T14:58:36.189Z,7240
2017-06-28T14:59:46.260Z,7000
2017-06-28T15:00:56.707Z,7024
2017-06-28T15:02:07.075Z,6520
2017-06-28T15:03:17.198Z,5336
2017-06-28T15:04:27.578Z,5112
2017-06-28T15:05:37.643Z,4536
2017-06-28T15:06:47.689Z,4388
2017-06-28T15:07:58.062Z,4444
2017-06-28T15:09:08.450Z,4552
2017-06-28T15:10:18.807Z,4772
2017-06-28T15:11:28.868Z,5140
2017-06-28T15:12:39.244Z,5564
2017-06-28T15:13:49.634Z,5860
2017-06-28T15:14:59.707Z,6184
2017-06-28T15:16:09.780Z,6492
2017-06-28T15:17:19.841Z,6924
2017-06-28T15:18:30.206Z,6764
2017-06-28T15:19:40.579Z,6772
2017-06-28T15:20:50.987Z,6796
2017-06-28T15:22:01.044Z,6840
2017-06-28T15:23:11.104Z,6884
2017-06-28T15:24:21.474Z,7040
2017-06-28T15:25:31.195Z,7056
2017-06-28T15:26:41.573Z,7176
2017-06-28T15:27:51.932Z,7112
2017-06-28T15:29:02.321Z,7108
2017-06-28T15:30:12.710Z,7004
2017-06-28T15:31:23.105Z,6932
2017-06-28T15:32:33.477Z,6836
2017-06-28T15:33:43.859Z,6824
2017-06-28T15:34:54.218Z,6644
2017-06-28T15:36:04.374Z,6492
2017-06-28T15:37:14.739Z,6360
2017-06-28T15:38:24.508Z,6308
2017-06-28T15:39:34.889Z,6200
2017-06-28T15:40:44.966Z,6296
2017-06-28T15:41:55.375Z,6308
2017-06-28T15:43:05.732Z,6364
2017-06-28T15:44:16.123Z,6288
2017-06-28T15:45:26.171Z,6360
2017-06-28T15:46:36.228Z,6264
2017-06-28T15:47:46.264Z,5988
2017-06-28T15:48:56.626Z,5900
2017-06-28T15:50:06.987Z,5748
2017-06-28T15:51:17.370Z,5372
2017-06-28T15:52:27.410Z,5912
2017-06-28T15:53:37.221Z,5840
2017-06-28T15:54:46.977Z,5776
2017-06-28T15:55:57.040Z,5904
2017-06-28T15:57:07.077Z,6244
2017-06-28T15:58:17.447Z,6596
2017-06-28T15:59:27.862Z,6492
2017-06-28T16:00:37.925Z,6528
2017-06-28T16:01:48.297Z,6444
2017-06-28T16:02:58.680Z,6492
2017-06-28T16:04:08.716Z,6540
2017-06-28T16:05:19.143Z,6544
2017-06-28T16:06:29.233Z,6684
2017-06-28T16:07:39.297Z,6804
2017-06-28T16:08:49.671Z,7184
2017-06-28T16:10:00.065Z,7412
2017-06-28T16:11:10.482Z,7528
2017-06-28T16:12:20.861Z,7344
2017-06-28T16:13:31.272Z,6976